sensor_id;sensor_type;location;lat;lon;timestamp;temperature;humidity
20143;DHT22;10509;46.476;7.134;2023-11-21T00:00:47;7.20;99.90
20143;DHT22;10509;46.476;7.134;2023-11-21T00:03:12;7.20;99.90
20143;DHT22;10509;46.476;7.134;2023-11-21T00:05:43;7.20;99.90
20143;DHT22;10509;46.476;7.134;2023-11-21T00:08:08;7.20;99.90
20143;DHT22;10509;46.476;7.134;2023-11-21T00:10:35;7.20;99.90
20143;DHT22;10509;46.476;7.134;2023-11-21T00:13:00;7.20;99.90
20143;DHT22;10509;46.476;7.134;2023-11-21T00:15:28;7.30;99.90
20143;DHT22;10509;46.476;7.134;2023-11-21T00:17:53;7.30;99.90
20143;DHT22;10509;46.476;7.134;2023-11-21T00:20:19;7.30;99.90
20143;DHT22;10509;46.476;7.134;2023-11-21T00:22:45;7.40;99.90
20143;DHT22;10509;46.476;7.134;2023-11-21T00:25:11;7.40;99.90
20143;DHT22;10509;46.476;7.134;2023-11-21T00:27:38;7.40;99.90
20143;DHT22;10509;46.476;7.134;2023-11-21T00:30:04;7.40;99.90
20143;DHT22;10509;46.476;7.134;2023-11-21T00:32:31;7.40;99.90
20143;DHT22;10509;46.476;7.134;2023-11-21T00:34:56;7.30;99.90
20143;DHT22;10509;46.476;7.134;2023-11-21T00:37:22;7.20;99.90
20143;DHT22;10509;46.476;7.134;2023-11-21T00:39:49;7.20;99.90
20143;DHT22;10509;46.476;7.134;2023-11-21T00:42:14;7.10;99.90
20143;DHT22;10509;46.476;7.134;2023-11-21T00:44:40;7.10;99.90
20143;DHT22;10509;46.476;7.134;2023-11-21T00:47:06;6.90;99.90
20143;DHT22;10509;46.476;7.134;2023-11-21T00:49:31;6.90;99.90
20143;DHT22;10509;46.476;7.134;2023-11-21T00:51:57;6.90;99.90
20143;DHT22;10509;46.476;7.134;2023-11-21T00:54:23;6.80;99.90
20143;DHT22;10509;46.476;7.134;2023-11-21T00:56:49;6.80;99.90
20143;DHT22;10509;46.476;7.134;2023-11-21T00:59:14;6.80;99.90
20143;DHT22;10509;46.476;7.134;2023-11-21T01:01:40;6.80;99.90
20143;DHT22;10509;46.476;7.134;2023-11-21T01:04:06;6.80;99.90
20143;DHT22;10509;46.476;7.134;2023-11-21T01:06:32;6.90;99.90
20143;DHT22;10509;46.476;7.134;2023-11-21T01:08:58;6.90;99.90
20143;DHT22;10509;46.476;7.134;2023-11-21T01:11:24;6.90;99.90
20143;DHT22;10509;46.476;7.134;2023-11-21T01:13:49;6.80;99.90
20143;DHT22;10509;46.476;7.134;2023-11-21T01:16:15;6.70;99.90
20143;DHT22;10509;46.476;7.134;2023-11-21T01:18:41;6.60;99.90
20143;DHT22;10509;46.476;7.134;2023-11-21T01:21:06;6.60;99.90
20143;DHT22;10509;46.476;7.134;2023-11-21T01:23:33;6.60;99.90
20143;DHT22;10509;46.476;7.134;2023-11-21T01:25:58;6.60;99.90
20143;DHT22;10509;46.476;7.134;2023-11-21T01:28:24;6.60;99.90
20143;DHT22;10509;46.476;7.134;2023-11-21T01:30:50;6.60;99.90
20143;DHT22;10509;46.476;7.134;2023-11-21T01:33:15;6.60;99.90
20143;DHT22;10509;46.476;7.134;2023-11-21T01:35:42;6.70;99.90
20143;DHT22;10509;46.476;7.134;2023-11-21T01:38:08;6.80;99.90
20143;DHT22;10509;46.476;7.134;2023-11-21T01:40:34;6.80;99.90
20143;DHT22;10509;46.476;7.134;2023-11-21T01:43:00;6.80;99.90
20143;DHT22;10509;46.476;7.134;2023-11-21T01:45:27;6.80;99.90
20143;DHT22;10509;46.476;7.134;2023-11-21T01:47:54;6.80;99.90
20143;DHT22;10509;46.476;7.134;2023-11-21T01:50:20;6.70;99.90
20143;DHT22;10509;46.476;7.134;2023-11-21T01:52:48;6.70;99.90
20143;DHT22;10509;46.476;7.134;2023-11-21T01:55:16;6.70;99.90
20143;DHT22;10509;46.476;7.134;2023-11-21T01:57:43;6.70;99.90
20143;DHT22;10509;46.476;7.134;2023-11-21T02:00:09;6.80;99.90
20143;DHT22;10509;46.476;7.134;2023-11-21T02:02:43;6.70;99.90
20143;DHT22;10509;46.476;7.134;2023-11-21T02:05:10;6.60;99.90
20143;DHT22;10509;46.476;7.134;2023-11-21T02:07:36;6.50;99.90
20143;DHT22;10509;46.476;7.134;2023-11-21T02:10:03;6.30;99.90
20143;DHT22;10509;46.476;7.134;2023-11-21T02:12:30;6.30;99.90
20143;DHT22;10509;46.476;7.134;2023-11-21T02:14:55;6.30;99.90
20143;DHT22;10509;46.476;7.134;2023-11-21T02:17:21;6.30;99.90
20143;DHT22;10509;46.476;7.134;2023-11-21T02:19:47;6.30;99.90
20143;DHT22;10509;46.476;7.134;2023-11-21T02:22:17;6.30;99.90
20143;DHT22;10509;46.476;7.134;2023-11-21T02:24:45;6.30;99.90
20143;DHT22;10509;46.476;7.134;2023-11-21T02:27:12;6.30;99.90
20143;DHT22;10509;46.476;7.134;2023-11-21T02:32:04;6.40;99.90
20143;DHT22;10509;46.476;7.134;2023-11-21T02:34:30;6.40;99.90
20143;DHT22;10509;46.476;7.134;2023-11-21T02:36:56;6.40;99.90
20143;DHT22;10509;46.476;7.134;2023-11-21T02:39:22;6.30;99.90
20143;DHT22;10509;46.476;7.134;2023-11-21T02:41:49;6.30;99.90
20143;DHT22;10509;46.476;7.134;2023-11-21T02:44:15;6.30;99.90
20143;DHT22;10509;46.476;7.134;2023-11-21T02:46:40;6.30;99.90
20143;DHT22;10509;46.476;7.134;2023-11-21T02:49:06;6.20;99.90
20143;DHT22;10509;46.476;7.134;2023-11-21T02:51:33;6.20;99.90
20143;DHT22;10509;46.476;7.134;2023-11-21T02:53:59;6.20;99.90
20143;DHT22;10509;46.476;7.134;2023-11-21T02:56:26;6.20;99.90
20143;DHT22;10509;46.476;7.134;2023-11-21T02:58:52;6.20;99.90
20143;DHT22;10509;46.476;7.134;2023-11-21T03:01:18;6.10;99.90
20143;DHT22;10509;46.476;7.134;2023-11-21T03:03:44;6.10;99.90
20143;DHT22;10509;46.476;7.134;2023-11-21T03:06:09;6.00;99.90
20143;DHT22;10509;46.476;7.134;2023-11-21T03:08:35;6.10;99.90
20143;DHT22;10509;46.476;7.134;2023-11-21T03:11:01;6.00;99.90
20143;DHT22;10509;46.476;7.134;2023-11-21T03:13:29;5.90;99.90
20143;DHT22;10509;46.476;7.134;2023-11-21T03:15:54;5.90;99.90
20143;DHT22;10509;46.476;7.134;2023-11-21T03:18:21;5.90;99.90
20143;DHT22;10509;46.476;7.134;2023-11-21T03:20:47;5.90;99.90
20143;DHT22;10509;46.476;7.134;2023-11-21T03:25:39;5.80;99.90
20143;DHT22;10509;46.476;7.134;2023-11-21T03:28:04;5.80;99.90
20143;DHT22;10509;46.476;7.134;2023-11-21T03:30:30;5.80;99.90
20143;DHT22;10509;46.476;7.134;2023-11-21T03:32:56;5.80;99.90
20143;DHT22;10509;46.476;7.134;2023-11-21T03:35:22;5.80;99.90
20143;DHT22;10509;46.476;7.134;2023-11-21T03:37:48;5.90;99.90
20143;DHT22;10509;46.476;7.134;2023-11-21T03:40:14;6.00;99.90
20143;DHT22;10509;46.476;7.134;2023-11-21T03:42:39;6.10;99.90
20143;DHT22;10509;46.476;7.134;2023-11-21T03:45:06;6.10;99.90
20143;DHT22;10509;46.476;7.134;2023-11-21T03:47:32;6.00;99.90
20143;DHT22;10509;46.476;7.134;2023-11-21T03:49:58;6.00;99.90
20143;DHT22;10509;46.476;7.134;2023-11-21T03:52:24;6.00;99.90
20143;DHT22;10509;46.476;7.134;2023-11-21T03:54:50;6.00;99.90
20143;DHT22;10509;46.476;7.134;2023-11-21T03:57:16;5.90;99.90
20143;DHT22;10509;46.476;7.134;2023-11-21T03:59:42;5.90;99.90
20143;DHT22;10509;46.476;7.134;2023-11-21T04:02:08;5.90;99.90
20143;DHT22;10509;46.476;7.134;2023-11-21T04:04:35;5.80;99.90
20143;DHT22;10509;46.476;7.134;2023-11-21T04:07:00;5.90;99.90
20143;DHT22;10509;46.476;7.134;2023-11-21T04:09:26;5.90;99.90
20143;DHT22;10509;46.476;7.134;2023-11-21T04:11:52;5.90;99.90
20143;DHT22;10509;46.476;7.134;2023-11-21T04:14:18;5.90;99.90
20143;DHT22;10509;46.476;7.134;2023-11-21T04:16:44;5.80;99.90
20143;DHT22;10509;46.476;7.134;2023-11-21T04:19:10;5.90;99.90
20143;DHT22;10509;46.476;7.134;2023-11-21T04:21:38;5.90;99.90
20143;DHT22;10509;46.476;7.134;2023-11-21T04:24:05;5.90;99.90
20143;DHT22;10509;46.476;7.134;2023-11-21T04:26:31;5.90;99.90
20143;DHT22;10509;46.476;7.134;2023-11-21T04:28:57;5.90;99.90
20143;DHT22;10509;46.476;7.134;2023-11-21T04:31:22;5.90;99.90
20143;DHT22;10509;46.476;7.134;2023-11-21T04:33:48;5.80;99.90
20143;DHT22;10509;46.476;7.134;2023-11-21T04:36:14;5.80;99.90
20143;DHT22;10509;46.476;7.134;2023-11-21T04:38:39;5.80;99.90
20143;DHT22;10509;46.476;7.134;2023-11-21T04:41:06;5.80;99.90
20143;DHT22;10509;46.476;7.134;2023-11-21T04:43:32;5.90;99.90
20143;DHT22;10509;46.476;7.134;2023-11-21T04:45:58;5.90;99.90
20143;DHT22;10509;46.476;7.134;2023-11-21T04:48:23;5.90;99.90
20143;DHT22;10509;46.476;7.134;2023-11-21T04:50:49;5.90;99.90
20143;DHT22;10509;46.476;7.134;2023-11-21T04:53:15;5.80;99.90
20143;DHT22;10509;46.476;7.134;2023-11-21T04:55:40;5.80;99.90
20143;DHT22;10509;46.476;7.134;2023-11-21T04:58:07;5.80;99.90
20143;DHT22;10509;46.476;7.134;2023-11-21T05:00:34;5.80;99.90
20143;DHT22;10509;46.476;7.134;2023-11-21T05:02:59;5.90;99.90
20143;DHT22;10509;46.476;7.134;2023-11-21T05:05:26;5.90;99.90
20143;DHT22;10509;46.476;7.134;2023-11-21T05:07:52;6.00;99.90
20143;DHT22;10509;46.476;7.134;2023-11-21T05:10:19;6.00;99.90
20143;DHT22;10509;46.476;7.134;2023-11-21T05:12:45;6.00;99.90
20143;DHT22;10509;46.476;7.134;2023-11-21T05:15:15;6.00;99.90
20143;DHT22;10509;46.476;7.134;2023-11-21T05:17:41;5.90;99.90
20143;DHT22;10509;46.476;7.134;2023-11-21T05:20:11;5.90;99.90
20143;DHT22;10509;46.476;7.134;2023-11-21T05:22:37;5.80;99.90
20143;DHT22;10509;46.476;7.134;2023-11-21T05:25:05;5.80;99.90
20143;DHT22;10509;46.476;7.134;2023-11-21T05:27:31;5.80;99.90
20143;DHT22;10509;46.476;7.134;2023-11-21T05:29:57;5.80;99.90
20143;DHT22;10509;46.476;7.134;2023-11-21T05:32:24;5.80;99.90
20143;DHT22;10509;46.476;7.134;2023-11-21T05:34:49;5.80;99.90
20143;DHT22;10509;46.476;7.134;2023-11-21T05:37:15;5.80;99.90
20143;DHT22;10509;46.476;7.134;2023-11-21T05:39:40;5.80;99.90
20143;DHT22;10509;46.476;7.134;2023-11-21T05:42:06;5.80;99.90
20143;DHT22;10509;46.476;7.134;2023-11-21T05:44:32;5.80;99.90
20143;DHT22;10509;46.476;7.134;2023-11-21T05:46:57;5.70;99.90
20143;DHT22;10509;46.476;7.134;2023-11-21T05:49:24;5.80;99.90
20143;DHT22;10509;46.476;7.134;2023-11-21T05:51:53;5.80;99.90
20143;DHT22;10509;46.476;7.134;2023-11-21T05:54:19;5.90;99.90
20143;DHT22;10509;46.476;7.134;2023-11-21T05:56:45;5.90;99.90
20143;DHT22;10509;46.476;7.134;2023-11-21T05:59:12;5.70;99.90
20143;DHT22;10509;46.476;7.134;2023-11-21T06:01:38;5.70;99.90
20143;DHT22;10509;46.476;7.134;2023-11-21T06:04:05;5.70;99.90
20143;DHT22;10509;46.476;7.134;2023-11-21T06:06:30;5.60;99.90
20143;DHT22;10509;46.476;7.134;2023-11-21T06:08:57;5.60;99.90
20143;DHT22;10509;46.476;7.134;2023-11-21T06:11:22;5.60;99.90
20143;DHT22;10509;46.476;7.134;2023-11-21T06:13:50;5.70;99.90
20143;DHT22;10509;46.476;7.134;2023-11-21T06:16:15;5.70;99.90
20143;DHT22;10509;46.476;7.134;2023-11-21T06:18:44;5.70;99.90
20143;DHT22;10509;46.476;7.134;2023-11-21T06:21:10;5.60;99.90
20143;DHT22;10509;46.476;7.134;2023-11-21T06:23:36;5.70;99.90
20143;DHT22;10509;46.476;7.134;2023-11-21T06:26:01;5.60;99.90
20143;DHT22;10509;46.476;7.134;2023-11-21T06:28:27;5.60;99.90
20143;DHT22;10509;46.476;7.134;2023-11-21T06:30:52;5.70;99.90
20143;DHT22;10509;46.476;7.134;2023-11-21T06:33:18;5.70;99.90
20143;DHT22;10509;46.476;7.134;2023-11-21T06:35:44;5.80;99.90
20143;DHT22;10509;46.476;7.134;2023-11-21T06:38:10;5.70;99.90
20143;DHT22;10509;46.476;7.134;2023-11-21T06:40:36;5.70;99.90
20143;DHT22;10509;46.476;7.134;2023-11-21T06:43:02;5.80;99.90
20143;DHT22;10509;46.476;7.134;2023-11-21T06:45:27;5.80;99.90
20143;DHT22;10509;46.476;7.134;2023-11-21T06:47:53;5.70;99.90
20143;DHT22;10509;46.476;7.134;2023-11-21T06:50:19;5.90;99.90
20143;DHT22;10509;46.476;7.134;2023-11-21T06:52:44;5.80;99.90
20143;DHT22;10509;46.476;7.134;2023-11-21T06:55:10;5.80;99.90
20143;DHT22;10509;46.476;7.134;2023-11-21T06:57:36;5.80;99.90
20143;DHT22;10509;46.476;7.134;2023-11-21T07:00:02;5.70;99.90
20143;DHT22;10509;46.476;7.134;2023-11-21T07:02:28;5.70;99.90
20143;DHT22;10509;46.476;7.134;2023-11-21T07:04:54;5.80;99.90
20143;DHT22;10509;46.476;7.134;2023-11-21T07:07:20;5.80;99.90
20143;DHT22;10509;46.476;7.134;2023-11-21T07:09:45;5.80;99.90
20143;DHT22;10509;46.476;7.134;2023-11-21T07:12:11;5.80;99.90
20143;DHT22;10509;46.476;7.134;2023-11-21T07:14:37;5.80;99.90
20143;DHT22;10509;46.476;7.134;2023-11-21T07:17:04;5.90;99.90
20143;DHT22;10509;46.476;7.134;2023-11-21T07:19:30;5.90;99.90
20143;DHT22;10509;46.476;7.134;2023-11-21T07:21:56;5.90;99.90
20143;DHT22;10509;46.476;7.134;2023-11-21T07:24:22;5.80;99.90
20143;DHT22;10509;46.476;7.134;2023-11-21T07:26:48;5.80;99.90
20143;DHT22;10509;46.476;7.134;2023-11-21T07:29:14;5.80;99.90
20143;DHT22;10509;46.476;7.134;2023-11-21T07:31:40;5.80;99.90
20143;DHT22;10509;46.476;7.134;2023-11-21T07:34:06;5.80;99.90
20143;DHT22;10509;46.476;7.134;2023-11-21T07:36:33;5.80;99.90
20143;DHT22;10509;46.476;7.134;2023-11-21T07:38:59;5.80;99.90
20143;DHT22;10509;46.476;7.134;2023-11-21T07:41:25;5.80;99.90
20143;DHT22;10509;46.476;7.134;2023-11-21T07:43:51;5.70;99.90
20143;DHT22;10509;46.476;7.134;2023-11-21T07:46:17;5.80;99.90
20143;DHT22;10509;46.476;7.134;2023-11-21T07:48:43;5.70;99.90
20143;DHT22;10509;46.476;7.134;2023-11-21T07:51:09;5.80;99.90
20143;DHT22;10509;46.476;7.134;2023-11-21T07:53:36;5.70;99.90
20143;DHT22;10509;46.476;7.134;2023-11-21T07:56:06;5.70;99.90
20143;DHT22;10509;46.476;7.134;2023-11-21T07:58:33;5.70;99.90
20143;DHT22;10509;46.476;7.134;2023-11-21T08:00:59;5.70;99.90
20143;DHT22;10509;46.476;7.134;2023-11-21T08:03:25;5.70;99.90
20143;DHT22;10509;46.476;7.134;2023-11-21T08:05:52;5.80;99.90
20143;DHT22;10509;46.476;7.134;2023-11-21T08:08:18;5.80;99.90
20143;DHT22;10509;46.476;7.134;2023-11-21T08:10:46;5.90;99.90
20143;DHT22;10509;46.476;7.134;2023-11-21T08:13:13;5.90;99.90
20143;DHT22;10509;46.476;7.134;2023-11-21T08:15:41;5.80;99.90
20143;DHT22;10509;46.476;7.134;2023-11-21T08:18:11;5.80;99.90
20143;DHT22;10509;46.476;7.134;2023-11-21T08:20:38;5.70;99.90
20143;DHT22;10509;46.476;7.134;2023-11-21T08:23:05;5.70;99.90
20143;DHT22;10509;46.476;7.134;2023-11-21T08:25:31;5.80;99.90
20143;DHT22;10509;46.476;7.134;2023-11-21T08:27:57;5.80;99.90
20143;DHT22;10509;46.476;7.134;2023-11-21T08:30:23;5.80;99.90
20143;DHT22;10509;46.476;7.134;2023-11-21T08:32:49;5.90;99.90
20143;DHT22;10509;46.476;7.134;2023-11-21T08:35:17;5.80;99.90
20143;DHT22;10509;46.476;7.134;2023-11-21T08:37:43;5.90;99.90
20143;DHT22;10509;46.476;7.134;2023-11-21T08:40:09;5.80;99.90
20143;DHT22;10509;46.476;7.134;2023-11-21T08:42:37;5.80;99.90
20143;DHT22;10509;46.476;7.134;2023-11-21T08:45:04;5.90;99.90
20143;DHT22;10509;46.476;7.134;2023-11-21T08:47:29;5.90;99.90
20143;DHT22;10509;46.476;7.134;2023-11-21T08:49:55;6.00;99.90
20143;DHT22;10509;46.476;7.134;2023-11-21T08:52:22;6.00;99.90
20143;DHT22;10509;46.476;7.134;2023-11-21T08:54:50;6.10;99.90
20143;DHT22;10509;46.476;7.134;2023-11-21T08:57:22;6.10;99.90
20143;DHT22;10509;46.476;7.134;2023-11-21T08:59:48;6.10;99.90
20143;DHT22;10509;46.476;7.134;2023-11-21T09:02:14;6.20;99.90
20143;DHT22;10509;46.476;7.134;2023-11-21T09:04:39;6.20;99.90
20143;DHT22;10509;46.476;7.134;2023-11-21T09:07:05;6.30;99.90
20143;DHT22;10509;46.476;7.134;2023-11-21T09:09:30;6.30;99.90
20143;DHT22;10509;46.476;7.134;2023-11-21T09:11:56;6.30;99.90
20143;DHT22;10509;46.476;7.134;2023-11-21T09:14:21;6.30;99.90
20143;DHT22;10509;46.476;7.134;2023-11-21T09:16:47;6.20;99.90
20143;DHT22;10509;46.476;7.134;2023-11-21T09:19:13;6.30;99.90
20143;DHT22;10509;46.476;7.134;2023-11-21T09:21:39;6.20;99.90
20143;DHT22;10509;46.476;7.134;2023-11-21T09:24:05;6.30;99.90
20143;DHT22;10509;46.476;7.134;2023-11-21T09:26:31;6.20;99.90
20143;DHT22;10509;46.476;7.134;2023-11-21T09:28:56;6.20;99.90
20143;DHT22;10509;46.476;7.134;2023-11-21T09:31:22;6.20;99.90
20143;DHT22;10509;46.476;7.134;2023-11-21T09:33:49;6.30;99.90
20143;DHT22;10509;46.476;7.134;2023-11-21T09:36:14;6.20;99.90
20143;DHT22;10509;46.476;7.134;2023-11-21T09:38:41;6.10;99.90
20143;DHT22;10509;46.476;7.134;2023-11-21T09:41:15;6.10;99.90
20143;DHT22;10509;46.476;7.134;2023-11-21T09:43:44;6.10;99.90
20143;DHT22;10509;46.476;7.134;2023-11-21T09:46:11;6.10;99.90
20143;DHT22;10509;46.476;7.134;2023-11-21T09:48:42;6.20;99.90
20143;DHT22;10509;46.476;7.134;2023-11-21T09:51:10;6.20;99.90
20143;DHT22;10509;46.476;7.134;2023-11-21T09:53:36;6.20;99.90
20143;DHT22;10509;46.476;7.134;2023-11-21T09:56:04;6.30;99.90
20143;DHT22;10509;46.476;7.134;2023-11-21T09:58:31;6.40;99.90
20143;DHT22;10509;46.476;7.134;2023-11-21T10:00:59;6.40;99.90
20143;DHT22;10509;46.476;7.134;2023-11-21T10:03:28;6.40;99.90
20143;DHT22;10509;46.476;7.134;2023-11-21T10:05:56;6.40;99.90
20143;DHT22;10509;46.476;7.134;2023-11-21T10:08:26;6.40;99.90
20143;DHT22;10509;46.476;7.134;2023-11-21T10:10:53;6.40;99.90
20143;DHT22;10509;46.476;7.134;2023-11-21T10:13:19;6.50;99.90
20143;DHT22;10509;46.476;7.134;2023-11-21T10:15:50;6.60;99.90
20143;DHT22;10509;46.476;7.134;2023-11-21T10:18:17;6.50;99.90
20143;DHT22;10509;46.476;7.134;2023-11-21T10:20:45;6.60;99.90
20143;DHT22;10509;46.476;7.134;2023-11-21T10:23:19;6.60;99.90
20143;DHT22;10509;46.476;7.134;2023-11-21T10:25:44;6.70;99.90
20143;DHT22;10509;46.476;7.134;2023-11-21T10:28:10;6.80;99.90
20143;DHT22;10509;46.476;7.134;2023-11-21T10:30:37;6.80;99.90
20143;DHT22;10509;46.476;7.134;2023-11-21T10:33:04;6.70;99.90
20143;DHT22;10509;46.476;7.134;2023-11-21T10:35:46;6.70;99.90
20143;DHT22;10509;46.476;7.134;2023-11-21T10:38:14;6.80;99.90
20143;DHT22;10509;46.476;7.134;2023-11-21T10:40:44;6.80;99.90
20143;DHT22;10509;46.476;7.134;2023-11-21T10:43:11;6.80;99.90
20143;DHT22;10509;46.476;7.134;2023-11-21T10:45:38;6.80;99.90
20143;DHT22;10509;46.476;7.134;2023-11-21T10:48:12;6.90;99.90
20143;DHT22;10509;46.476;7.134;2023-11-21T10:50:41;6.90;99.90
20143;DHT22;10509;46.476;7.134;2023-11-21T10:53:07;6.90;99.90
20143;DHT22;10509;46.476;7.134;2023-11-21T10:55:34;6.80;99.90
20143;DHT22;10509;46.476;7.134;2023-11-21T10:58:01;6.80;99.90
20143;DHT22;10509;46.476;7.134;2023-11-21T11:00:28;6.90;99.90
20143;DHT22;10509;46.476;7.134;2023-11-21T11:02:54;6.90;99.90
20143;DHT22;10509;46.476;7.134;2023-11-21T11:05:22;6.90;99.90
20143;DHT22;10509;46.476;7.134;2023-11-21T11:08:12;6.90;99.90
20143;DHT22;10509;46.476;7.134;2023-11-21T11:10:37;6.90;99.90
20143;DHT22;10509;46.476;7.134;2023-11-21T11:13:03;6.90;99.90
20143;DHT22;10509;46.476;7.134;2023-11-21T11:15:29;6.90;99.90
20143;DHT22;10509;46.476;7.134;2023-11-21T11:17:56;6.90;99.90
20143;DHT22;10509;46.476;7.134;2023-11-21T11:20:33;6.90;99.90
20143;DHT22;10509;46.476;7.134;2023-11-21T11:31:31;6.90;99.90
20143;DHT22;10509;46.476;7.134;2023-11-21T11:34:26;7.00;99.90
20143;DHT22;10509;46.476;7.134;2023-11-21T11:37:02;7.00;99.90
20143;DHT22;10509;46.476;7.134;2023-11-21T11:39:30;7.20;99.90
20143;DHT22;10509;46.476;7.134;2023-11-21T11:41:57;7.40;99.90
20143;DHT22;10509;46.476;7.134;2023-11-21T11:47:26;7.70;99.90
20143;DHT22;10509;46.476;7.134;2023-11-21T11:50:10;7.80;99.90
20143;DHT22;10509;46.476;7.134;2023-11-21T11:52:49;7.80;99.90
20143;DHT22;10509;46.476;7.134;2023-11-21T11:55:22;7.70;99.90
20143;DHT22;10509;46.476;7.134;2023-11-21T11:57:53;7.70;99.90
20143;DHT22;10509;46.476;7.134;2023-11-21T12:00:34;7.70;99.90
20143;DHT22;10509;46.476;7.134;2023-11-21T12:03:04;7.60;99.90
20143;DHT22;10509;46.476;7.134;2023-11-21T12:05:32;7.70;99.90
20143;DHT22;10509;46.476;7.134;2023-11-21T12:08:04;7.70;99.90
20143;DHT22;10509;46.476;7.134;2023-11-21T12:10:32;7.80;99.90
20143;DHT22;10509;46.476;7.134;2023-11-21T12:13:01;7.90;99.90
20143;DHT22;10509;46.476;7.134;2023-11-21T12:15:27;8.00;99.90
20143;DHT22;10509;46.476;7.134;2023-11-21T12:17:56;8.00;99.90
20143;DHT22;10509;46.476;7.134;2023-11-21T12:20:23;8.00;99.90
20143;DHT22;10509;46.476;7.134;2023-11-21T12:22:51;8.00;99.90
20143;DHT22;10509;46.476;7.134;2023-11-21T12:25:25;8.00;99.90
20143;DHT22;10509;46.476;7.134;2023-11-21T12:27:54;7.90;99.90
20143;DHT22;10509;46.476;7.134;2023-11-21T12:30:21;7.80;99.90
20143;DHT22;10509;46.476;7.134;2023-11-21T12:32:52;7.70;99.90
20143;DHT22;10509;46.476;7.134;2023-11-21T12:35:19;7.70;99.90
20143;DHT22;10509;46.476;7.134;2023-11-21T12:37:46;7.70;99.90
20143;DHT22;10509;46.476;7.134;2023-11-21T12:40:13;7.70;99.90
20143;DHT22;10509;46.476;7.134;2023-11-21T12:42:48;7.70;99.90
20143;DHT22;10509;46.476;7.134;2023-11-21T12:47:50;7.90;99.90
20143;DHT22;10509;46.476;7.134;2023-11-21T12:50:23;7.70;99.90
20143;DHT22;10509;46.476;7.134;2023-11-21T12:52:51;7.70;99.90
20143;DHT22;10509;46.476;7.134;2023-11-21T12:55:20;7.70;99.90
20143;DHT22;10509;46.476;7.134;2023-11-21T12:57:51;7.70;99.90
20143;DHT22;10509;46.476;7.134;2023-11-21T13:00:18;7.60;99.90
20143;DHT22;10509;46.476;7.134;2023-11-21T13:02:54;7.70;99.90
20143;DHT22;10509;46.476;7.134;2023-11-21T13:05:33;7.60;99.90
20143;DHT22;10509;46.476;7.134;2023-11-21T13:08:02;7.60;99.90
20143;DHT22;10509;46.476;7.134;2023-11-21T13:10:31;7.60;99.90
20143;DHT22;10509;46.476;7.134;2023-11-21T13:12:58;7.70;99.90
20143;DHT22;10509;46.476;7.134;2023-11-21T13:15:24;7.70;99.90
20143;DHT22;10509;46.476;7.134;2023-11-21T13:17:51;7.70;99.90
20143;DHT22;10509;46.476;7.134;2023-11-21T13:20:17;7.70;99.90
20143;DHT22;10509;46.476;7.134;2023-11-21T13:23:09;7.70;99.90
20143;DHT22;10509;46.476;7.134;2023-11-21T13:25:38;7.60;99.90
20143;DHT22;10509;46.476;7.134;2023-11-21T13:28:04;7.50;99.90
20143;DHT22;10509;46.476;7.134;2023-11-21T13:30:30;7.50;99.90
20143;DHT22;10509;46.476;7.134;2023-11-21T13:33:06;7.50;99.90
20143;DHT22;10509;46.476;7.134;2023-11-21T13:35:37;7.60;99.90
20143;DHT22;10509;46.476;7.134;2023-11-21T13:38:09;7.50;99.90
20143;DHT22;10509;46.476;7.134;2023-11-21T13:40:35;7.40;99.90
20143;DHT22;10509;46.476;7.134;2023-11-21T13:43:12;7.40;99.90
20143;DHT22;10509;46.476;7.134;2023-11-21T13:45:42;7.30;99.90
20143;DHT22;10509;46.476;7.134;2023-11-21T13:48:10;7.40;99.90
20143;DHT22;10509;46.476;7.134;2023-11-21T13:50:41;7.30;99.90
20143;DHT22;10509;46.476;7.134;2023-11-21T13:53:20;7.30;99.90
20143;DHT22;10509;46.476;7.134;2023-11-21T13:55:55;7.30;99.90
20143;DHT22;10509;46.476;7.134;2023-11-21T13:58:23;7.30;99.90
20143;DHT22;10509;46.476;7.134;2023-11-21T14:00:58;7.20;99.90
20143;DHT22;10509;46.476;7.134;2023-11-21T14:03:24;7.10;99.90
20143;DHT22;10509;46.476;7.134;2023-11-21T14:05:58;6.90;99.90
20143;DHT22;10509;46.476;7.134;2023-11-21T14:08:26;6.90;99.90
20143;DHT22;10509;46.476;7.134;2023-11-21T14:10:57;6.80;99.90
20143;DHT22;10509;46.476;7.134;2023-11-21T14:13:25;6.70;99.90
20143;DHT22;10509;46.476;7.134;2023-11-21T14:15:51;6.80;99.90
20143;DHT22;10509;46.476;7.134;2023-11-21T14:18:24;6.80;99.90
20143;DHT22;10509;46.476;7.134;2023-11-21T14:20:59;6.80;99.90
20143;DHT22;10509;46.476;7.134;2023-11-21T14:23:25;6.80;99.90
20143;DHT22;10509;46.476;7.134;2023-11-21T14:25:51;6.90;99.90
20143;DHT22;10509;46.476;7.134;2023-11-21T14:28:17;6.90;99.90
20143;DHT22;10509;46.476;7.134;2023-11-21T14:30:45;7.00;99.90
20143;DHT22;10509;46.476;7.134;2023-11-21T14:33:12;7.00;99.90
20143;DHT22;10509;46.476;7.134;2023-11-21T14:35:37;7.00;99.90
20143;DHT22;10509;46.476;7.134;2023-11-21T14:38:03;7.10;99.90
20143;DHT22;10509;46.476;7.134;2023-11-21T14:40:33;7.00;99.90
20143;DHT22;10509;46.476;7.134;2023-11-21T14:43:01;7.00;99.90
20143;DHT22;10509;46.476;7.134;2023-11-21T14:45:31;7.00;99.90
20143;DHT22;10509;46.476;7.134;2023-11-21T14:47:57;6.90;99.90
20143;DHT22;10509;46.476;7.134;2023-11-21T14:50:34;7.00;99.90
20143;DHT22;10509;46.476;7.134;2023-11-21T14:53:03;6.90;99.90
20143;DHT22;10509;46.476;7.134;2023-11-21T14:55:34;6.90;99.90
20143;DHT22;10509;46.476;7.134;2023-11-21T14:58:16;7.00;99.90
20143;DHT22;10509;46.476;7.134;2023-11-21T15:00:58;7.00;99.90
20143;DHT22;10509;46.476;7.134;2023-11-21T15:03:25;6.90;99.90
20143;DHT22;10509;46.476;7.134;2023-11-21T15:06:03;7.00;99.90
20143;DHT22;10509;46.476;7.134;2023-11-21T15:08:49;7.00;99.90
20143;DHT22;10509;46.476;7.134;2023-11-21T15:11:21;7.00;99.90
20143;DHT22;10509;46.476;7.134;2023-11-21T15:13:53;7.00;99.90
20143;DHT22;10509;46.476;7.134;2023-11-21T15:16:19;7.00;99.90
20143;DHT22;10509;46.476;7.134;2023-11-21T15:18:45;6.90;99.90
20143;DHT22;10509;46.476;7.134;2023-11-21T15:21:10;6.90;99.90
20143;DHT22;10509;46.476;7.134;2023-11-21T15:23:38;7.00;99.90
20143;DHT22;10509;46.476;7.134;2023-11-21T15:26:04;6.90;99.90
20143;DHT22;10509;46.476;7.134;2023-11-21T15:28:30;6.90;99.90
20143;DHT22;10509;46.476;7.134;2023-11-21T15:30:58;6.90;99.90
20143;DHT22;10509;46.476;7.134;2023-11-21T15:33:23;6.90;99.90
20143;DHT22;10509;46.476;7.134;2023-11-21T15:35:49;7.00;99.90
20143;DHT22;10509;46.476;7.134;2023-11-21T15:38:14;6.90;99.90
20143;DHT22;10509;46.476;7.134;2023-11-21T15:40:40;6.80;99.90
20143;DHT22;10509;46.476;7.134;2023-11-21T15:43:06;6.80;99.90
20143;DHT22;10509;46.476;7.134;2023-11-21T15:45:32;6.80;99.90
20143;DHT22;10509;46.476;7.134;2023-11-21T15:47:58;6.80;99.90
20143;DHT22;10509;46.476;7.134;2023-11-21T15:50:24;6.70;99.90
20143;DHT22;10509;46.476;7.134;2023-11-21T15:52:50;6.70;99.90
20143;DHT22;10509;46.476;7.134;2023-11-21T15:55:16;6.70;99.90
20143;DHT22;10509;46.476;7.134;2023-11-21T15:57:43;6.60;99.90
20143;DHT22;10509;46.476;7.134;2023-11-21T16:00:09;6.70;99.90
20143;DHT22;10509;46.476;7.134;2023-11-21T16:02:42;6.60;99.90
20143;DHT22;10509;46.476;7.134;2023-11-21T16:05:08;6.60;99.90